createdAt,value
2022-11-13T00:00:51.421Z,4.53
2022-11-13T00:06:35.871Z,5.03
2022-11-13T00:12:22.536Z,5.53
2022-11-13T00:18:05.469Z,5.30
2022-11-13T00:23:50.495Z,5.40
2022-11-13T00:29:36.746Z,4.50
2022-11-13T00:35:19.498Z,4.75
2022-11-13T00:41:02.450Z,4.63
2022-11-13T00:46:48.456Z,4.30
2022-11-13T00:52:31.484Z,4.10
2022-11-13T00:58:14.453Z,4.57
2022-11-13T01:04:00.477Z,4.80
2022-11-13T01:09:43.496Z,4.93
2022-11-13T01:15:32.502Z,4.82
2022-11-13T01:21:21.513Z,5.53
2022-11-13T01:27:06.505Z,4.50
2022-11-13T01:32:49.467Z,4.70
2022-11-13T01:38:37.280Z,5.10
2022-11-13T01:44:23.502Z,4.82
2022-11-13T01:50:11.483Z,5.35
2022-11-13T01:55:58.964Z,9.18
2022-11-13T02:01:41.564Z,4.20
2022-11-13T02:07:28.517Z,4.10
2022-11-13T02:13:14.511Z,4.60
2022-11-13T02:18:57.530Z,3.40
2022-11-13T02:24:48.869Z,5.70
2022-11-13T02:30:38.514Z,6.50
2022-11-13T02:36:24.499Z,3.67
2022-11-13T02:42:10.766Z,5.40
2022-11-13T02:47:53.529Z,11.23
2022-11-13T02:53:36.542Z,5.50
2022-11-13T02:59:22.553Z,4.55
2022-11-13T03:05:13.906Z,7.75
2022-11-13T03:10:56.506Z,7.95
2022-11-13T03:16:42.528Z,4.60
2022-11-13T03:22:25.518Z,3.70
2022-11-13T03:28:09.260Z,4.43
2022-11-13T03:33:54.557Z,3.75
2022-11-13T03:39:37.530Z,3.75
2022-11-13T03:45:20.623Z,3.40
2022-11-13T03:51:11.558Z,3.75
2022-11-13T03:56:54.758Z,9.90
2022-11-13T04:02:43.572Z,6.68
2022-11-13T04:08:29.966Z,4.05
2022-11-13T04:14:12.607Z,3.97
2022-11-13T04:19:55.538Z,2.97
2022-11-13T04:25:41.561Z,4.68
2022-11-13T04:31:24.696Z,8.35
2022-11-13T04:37:07.588Z,6.95
2022-11-13T04:42:59.726Z,5.35
2022-11-13T04:48:42.555Z,4.40
2022-11-13T04:54:28.687Z,3.75
2022-11-13T05:00:14.542Z,4.55
2022-11-13T05:05:57.553Z,4.70
2022-11-13T05:11:40.615Z,4.60
2022-11-13T05:17:26.561Z,4.60
2022-11-13T05:23:09.599Z,4.25
2022-11-13T05:28:53.595Z,4.50
2022-11-13T05:34:39.612Z,5.10
2022-11-13T05:40:22.607Z,5.00
2022-11-13T05:46:05.565Z,4.47
2022-11-13T05:51:52.566Z,4.00
2022-11-13T05:57:37.899Z,4.22
2022-11-13T06:03:26.726Z,5.40
2022-11-13T06:09:15.828Z,5.90
2022-11-13T06:14:59.764Z,6.38
2022-11-13T06:20:43.590Z,5.47
2022-11-13T06:26:31.699Z,6.57
2022-11-13T06:32:14.598Z,4.82
2022-11-13T06:37:57.597Z,8.48
2022-11-13T06:43:44.591Z,4.80
2022-11-13T06:49:27.588Z,7.07
2022-11-13T06:55:10.612Z,5.88
2022-11-13T07:00:56.623Z,6.25
2022-11-13T07:06:40.624Z,7.43
2022-11-13T07:12:23.629Z,3.60
2022-11-13T07:18:09.633Z,3.58
2022-11-13T07:23:54.614Z,3.53
2022-11-13T07:29:37.622Z,3.55
2022-11-13T07:35:25.643Z,3.17
2022-11-13T07:41:08.612Z,3.30
2022-11-13T07:46:51.617Z,5.60
2022-11-13T07:52:37.715Z,7.57
2022-11-13T07:58:21.643Z,17.83
2022-11-13T08:04:11.634Z,10.48
2022-11-13T08:09:57.624Z,8.63
2022-11-13T08:15:41.636Z,15.38
2022-11-13T08:21:24.674Z,11.73
2022-11-13T08:27:09.644Z,8.20
2022-11-13T08:32:52.640Z,6.57
2022-11-13T08:38:35.666Z,6.47
2022-11-13T08:44:21.668Z,6.13
2022-11-13T08:50:04.669Z,6.20
2022-11-13T08:55:47.717Z,6.10
2022-11-13T09:01:32.665Z,6.40
2022-11-13T09:07:16.709Z,6.68
2022-11-13T09:12:59.642Z,5.32
2022-11-13T09:18:45.681Z,4.63
2022-11-13T09:24:28.658Z,3.95
2022-11-13T09:30:13.661Z,4.10
2022-11-13T09:35:59.675Z,3.70
2022-11-13T09:41:46.698Z,4.38
2022-11-13T09:47:34.668Z,4.10
2022-11-13T09:53:22.684Z,4.20
2022-11-13T09:59:13.697Z,4.00
2022-11-13T10:05:13.705Z,4.47
2022-11-13T10:11:05.669Z,4.50
2022-11-13T10:16:51.790Z,3.97
2022-11-13T10:22:40.675Z,5.30
2022-11-13T10:34:35.694Z,4.50
2022-11-13T10:40:19.781Z,4.10
2022-11-13T10:46:08.688Z,3.63
2022-11-13T10:51:51.728Z,3.88
2022-11-13T10:57:40.700Z,3.53
2022-11-13T11:03:29.727Z,5.15
2022-11-13T11:09:26.720Z,4.60
2022-11-13T11:15:25.721Z,3.75
2022-11-13T11:21:16.713Z,4.00
2022-11-13T11:27:07.724Z,4.13
2022-11-13T11:32:54.740Z,4.10
2022-11-13T11:40:41.410Z,3.30
2022-11-13T11:46:32.389Z,4.00
2022-11-13T11:52:28.418Z,3.50
2022-11-13T11:58:27.687Z,4.38
2022-11-13T12:04:26.383Z,4.70
2022-11-13T12:10:18.400Z,5.40
2022-11-13T12:16:11.429Z,6.82
2022-11-13T12:22:03.723Z,6.63
2022-11-13T12:27:53.433Z,7.78
2022-11-13T12:33:52.311Z,6.97
2022-11-13T12:39:58.426Z,6.50
2022-11-13T12:45:55.419Z,7.30
2022-11-13T12:51:41.441Z,6.80
2022-11-13T12:57:31.413Z,6.78
2022-11-13T13:03:31.405Z,7.65
2022-11-13T13:09:45.411Z,7.82
2022-11-13T13:15:45.530Z,8.20
2022-11-13T13:21:31.460Z,8.13
2022-11-13T13:27:41.490Z,8.43
2022-11-13T13:33:32.427Z,9.85
2022-11-13T13:39:23.429Z,9.82
2022-11-13T13:45:25.785Z,9.33
2022-11-13T13:51:09.446Z,9.85
2022-11-13T13:56:54.449Z,9.38
2022-11-13T14:02:40.455Z,10.13
2022-11-13T14:08:28.743Z,12.35
2022-11-13T14:14:21.452Z,13.40
2022-11-13T14:20:08.465Z,16.35
2022-11-13T14:25:51.474Z,19.55
2022-11-13T14:31:37.492Z,18.55
2022-11-13T14:37:36.477Z,18.58
2022-11-13T14:43:28.610Z,19.17
2022-11-13T14:55:14.961Z,18.67
2022-11-13T15:00:59.612Z,19.20
2022-11-13T15:06:47.530Z,20.77
2022-11-13T15:12:32.476Z,20.65
2022-11-13T15:18:19.535Z,21.17
2022-11-13T15:24:02.469Z,21.63
2022-11-13T15:29:48.500Z,21.30
2022-11-13T15:35:33.539Z,22.45
2022-11-13T15:41:21.490Z,22.17
2022-11-13T15:47:07.494Z,24.40
2022-11-13T15:52:55.492Z,25.98
2022-11-13T15:58:38.537Z,24.33
2022-11-13T16:04:30.186Z,25.50
2022-11-13T16:10:24.518Z,25.25
2022-11-13T16:16:09.513Z,23.45
2022-11-13T16:21:56.531Z,25.50
2022-11-13T16:27:47.506Z,24.17
2022-11-13T16:33:31.107Z,27.50
2022-11-13T16:39:17.518Z,28.13
2022-11-13T16:45:00.509Z,27.05
2022-11-13T16:50:46.549Z,31.30
2022-11-13T16:56:37.541Z,27.15
2022-11-13T17:02:28.504Z,29.23
2022-11-13T17:08:12.544Z,29.43
2022-11-13T17:13:59.546Z,29.02
2022-11-13T17:19:47.534Z,29.33
2022-11-13T17:25:36.529Z,29.20
2022-11-13T17:31:22.566Z,28.13
2022-11-13T17:37:07.542Z,29.73
2022-11-13T17:42:50.539Z,30.83
2022-11-13T17:48:36.557Z,29.33
2022-11-13T17:54:19.549Z,28.52
2022-11-13T18:00:02.562Z,27.90
2022-11-13T18:05:48.561Z,27.85
2022-11-13T18:11:33.563Z,27.85
2022-11-13T18:17:16.712Z,26.30
2022-11-13T18:23:02.541Z,28.38
2022-11-13T18:28:46.566Z,27.75
2022-11-13T18:34:32.556Z,27.73
2022-11-13T18:40:19.557Z,27.40
2022-11-13T18:46:12.580Z,26.98
2022-11-13T18:51:55.587Z,27.02
2022-11-13T18:57:41.579Z,27.98
2022-11-13T19:03:24.589Z,28.40
2022-11-13T19:09:10.570Z,27.48
2022-11-13T19:14:57.573Z,27.75
2022-11-13T19:20:34.562Z,25.23
2022-11-13T19:26:18.597Z,24.55
2022-11-13T19:32:04.605Z,22.77
2022-11-13T19:37:47.598Z,22.10
2022-11-13T19:43:30.593Z,23.38
2022-11-13T19:49:17.609Z,22.13
2022-11-13T19:55:00.833Z,19.88
2022-11-13T20:00:51.660Z,19.15
2022-11-13T20:06:44.614Z,20.80
2022-11-13T20:12:28.601Z,21.10
2022-11-13T20:18:12.636Z,21.15
2022-11-13T20:23:58.602Z,20.10
2022-11-13T20:29:41.914Z,16.92
2022-11-13T20:35:24.639Z,16.10
2022-11-13T20:41:10.609Z,15.18
2022-11-13T20:46:53.625Z,16.05
2022-11-13T20:52:36.593Z,15.00
2022-11-13T20:58:22.657Z,15.10
2022-11-13T21:04:06.613Z,16.63
2022-11-13T21:09:50.206Z,17.20
2022-11-13T21:15:35.627Z,16.48
2022-11-13T21:21:21.641Z,15.55
2022-11-13T21:27:04.624Z,14.00
2022-11-13T21:32:50.666Z,13.73
2022-11-13T21:38:34.680Z,12.85
2022-11-13T21:44:19.701Z,12.27
2022-11-13T21:50:05.631Z,13.35
2022-11-13T21:55:58.620Z,13.02
2022-11-13T22:01:42.720Z,12.45
2022-11-13T22:07:28.744Z,11.50
2022-11-13T22:13:12.703Z,10.05
2022-11-13T22:18:56.646Z,9.02
2022-11-13T22:24:43.665Z,9.90
2022-11-13T22:30:27.645Z,9.15
2022-11-13T22:36:16.799Z,9.85
2022-11-13T22:42:02.703Z,10.35
2022-11-13T22:47:45.743Z,9.80
2022-11-13T22:53:28.673Z,9.45
2022-11-13T22:59:21.720Z,9.70
2022-11-13T23:05:04.659Z,14.55
2022-11-13T23:10:47.971Z,18.92
2022-11-13T23:16:35.705Z,13.93
2022-11-13T23:22:18.670Z,17.75
2022-11-13T23:28:01.678Z,20.60
2022-11-13T23:33:48.967Z,16.13
2022-11-13T23:39:31.681Z,17.02
2022-11-13T23:45:14.706Z,16.58
2022-11-13T23:51:00.710Z,21.52
2022-11-13T23:56:43.692Z,18.02
